Time;durP1;ratioP1;P1;durP2;ratioP2;P2;SDS_P1;SDS_P2;PMS_P1;PMS_P2;Temp;Humidity;BMP_temperature;BMP_pressure;BME280_temperature;BME280_humidity;BME280_pressure;Samples;Min_cycle;Max_cycle;Signal;HPM_P1;HPM_P2
2020/12/12 00:00:50;;;;;;;32.92;20.38;;;;;;;4.22;100.00;98288.16;4995178;28;20053;-66
2020/12/12 00:03:34;;;;;;;31.38;20.58;;;;;;;4.24;100.00;98291.44;4996277;28;20471;-66
2020/12/12 00:06:22;;;;;;;30.48;19.63;;;;;;;4.28;100.00;98284.91;4995448;28;20108;-66
2020/12/12 00:09:06;;;;;;;30.95;19.15;;;;;;;4.32;100.00;98288.88;4996066;28;20083;-65
2020/12/12 00:11:50;;;;;;;37.92;22.70;;;;;;;4.34;100.00;98281.66;4996326;28;20049;-66
2020/12/12 00:14:34;;;;;;;31.33;19.67;;;;;;;4.38;100.00;98283.00;4995824;28;20046;-66
2020/12/12 00:17:19;;;;;;;27.05;19.02;;;;;;;4.40;100.00;98270.50;4996020;28;20052;-66
2020/12/12 00:20:03;;;;;;;29.58;18.85;;;;;;;4.42;100.00;98274.66;4995871;28;20132;-66
2020/12/12 00:22:47;;;;;;;28.02;17.90;;;;;;;4.48;100.00;98273.19;4994846;28;20053;-66
2020/12/12 00:25:31;;;;;;;27.58;18.83;;;;;;;4.46;100.00;98265.44;4995975;28;20069;-66
2020/12/12 00:28:15;;;;;;;31.20;19.00;;;;;;;4.50;100.00;98263.31;4995108;28;20057;-66
2020/12/12 00:31:00;;;;;;;28.45;19.08;;;;;;;4.52;100.00;98263.97;4994934;28;20522;-66
2020/12/12 00:33:45;;;;;;;27.48;18.08;;;;;;;4.47;100.00;98267.06;4994819;28;20506;-66
2020/12/12 00:36:29;;;;;;;29.58;18.92;;;;;;;4.48;100.00;98262.66;4994861;28;20549;-66
2020/12/12 00:39:13;;;;;;;26.67;18.40;;;;;;;4.47;100.00;98277.63;4995526;28;20587;-66
2020/12/12 00:41:57;;;;;;;27.77;18.13;;;;;;;4.47;100.00;98280.25;4995548;28;20530;-65
2020/12/12 00:44:41;;;;;;;26.77;17.73;;;;;;;4.50;100.00;98281.78;4995318;28;20398;-66
2020/12/12 00:47:26;;;;;;;25.80;17.88;;;;;;;4.52;100.00;98282.44;4994656;28;20048;-66
2020/12/12 00:50:10;;;;;;;35.58;21.67;;;;;;;4.55;100.00;98279.50;4995629;28;20065;-66
2020/12/12 00:52:54;;;;;;;27.55;18.83;;;;;;;4.49;100.00;98283.56;4995367;28;20045;-67
2020/12/12 00:55:38;;;;;;;28.55;18.65;;;;;;;4.51;100.00;98284.28;4994043;28;20053;-66
2020/12/12 00:58:22;;;;;;;29.00;18.65;;;;;;;4.51;100.00;98272.88;4995133;28;20121;-66
2020/12/12 01:01:07;;;;;;;27.02;17.67;;;;;;;4.50;100.00;98279.97;4995130;28;20049;-66
2020/12/12 01:03:51;;;;;;;26.15;17.17;;;;;;;4.53;100.00;98281.47;4995133;28;20106;-66
2020/12/12 01:06:35;;;;;;;29.05;18.38;;;;;;;4.57;100.00;98280.19;4994958;28;20057;-66
2020/12/12 01:09:19;;;;;;;23.85;16.85;;;;;;;4.56;100.00;98289.09;4994008;28;20053;-66
2020/12/12 01:12:03;;;;;;;26.55;17.85;;;;;;;4.60;100.00;98287.78;4993948;28;20049;-67
2020/12/12 01:14:47;;;;;;;23.35;16.40;;;;;;;4.57;100.00;98288.09;4993843;28;20049;-66
2020/12/12 01:17:33;;;;;;;25.05;17.27;;;;;;;4.58;100.00;98290.56;4993850;28;20558;-67
2020/12/12 01:20:17;;;;;;;24.33;16.83;;;;;;;4.59;100.00;98302.78;4994076;28;20052;-66
2020/12/12 01:23:01;;;;;;;26.48;17.85;;;;;;;4.60;100.00;98296.53;4994007;28;20073;-66
2020/12/12 01:25:45;;;;;;;26.08;17.08;;;;;;;4.61;100.00;98294.72;4994850;28;20407;-66
2020/12/12 01:28:30;;;;;;;27.95;18.15;;;;;;;4.61;100.00;98300.00;4993908;28;20069;-66
2020/12/12 01:31:14;;;;;;;24.63;16.38;;;;;;;4.61;100.00;98300.00;4994579;28;20069;-66
2020/12/12 01:33:58;;;;;;;23.63;16.38;;;;;;;4.63;100.00;98303.31;4994814;28;20505;-66
2020/12/12 01:36:42;;;;;;;21.25;14.85;;;;;;;4.64;100.00;98302.31;4993429;28;20100;-67
2020/12/12 01:39:27;;;;;;;24.67;15.90;;;;;;;4.65;100.00;98306.59;4993709;28;20053;-65
2020/12/12 01:42:11;;;;;;;23.02;16.20;;;;;;;4.63;100.00;98303.31;4994629;28;20045;-66
2020/12/12 01:44:56;;;;;;;25.63;16.33;;;;;;;4.61;100.00;98300.84;4993252;28;20053;-65
2020/12/12 01:47:40;;;;;;;24.35;17.17;;;;;;;4.63;100.00;98305.94;4993341;28;20514;-66
2020/12/12 01:50:28;;;;;;;21.25;15.07;;;;;;;4.64;100.00;98311.06;5007401;28;20069;-65
2020/12/12 01:53:13;;;;;;;27.73;17.27;;;;;;;4.64;100.00;98307.59;4994093;28;20134;-66
2020/12/12 01:55:57;;;;;;;23.15;16.13;;;;;;;4.68;100.00;98301.03;4993621;28;20506;-66
2020/12/12 01:58:41;;;;;;;24.17;16.00;;;;;;;4.67;100.00;98300.19;4994412;28;20122;-66
2020/12/12 02:01:27;;;;;;;27.67;17.00;;;;;;;4.67;100.00;98304.66;4994111;28;20562;-67
2020/12/12 02:04:12;;;;;;;25.45;16.90;;;;;;;4.64;100.00;98302.31;4993977;28;20054;-66
2020/12/12 02:06:55;;;;;;;30.15;16.88;;;;;;;4.62;100.00;98299.84;4992447;28;20522;-66
2020/12/12 02:09:39;;;;;;;24.38;17.25;;;;;;;4.60;100.00;98299.19;4979554;28;20049;-66
2020/12/12 02:12:23;;;;;;;25.02;17.05;;;;;;;4.60;100.00;98298.34;4994219;28;20057;-66
2020/12/12 02:15:08;;;;;;;22.27;16.38;;;;;;;4.57;100.00;98299.47;4993833;28;20049;-66
2020/12/12 02:17:52;;;;;;;27.90;18.30;;;;;;;4.56;100.00;98297.00;4993850;28;20093;-66
2020/12/12 02:20:35;;;;;;;26.40;16.73;;;;;;;4.56;100.00;98297.00;4992837;28;20136;-66
2020/12/12 02:23:20;;;;;;;26.55;17.38;;;;;;;4.57;100.00;98296.03;4992895;28;20048;-66
2020/12/12 02:26:04;;;;;;;22.25;15.25;;;;;;;4.56;100.00;98303.09;4993124;28;20419;-66
2020/12/12 02:28:53;;;;;;;26.85;17.38;;;;;;;4.56;100.00;98303.09;4993030;28;20557;-66
2020/12/12 02:31:38;;;;;;;23.33;15.52;;;;;;;4.56;100.00;98303.09;4993742;28;20602;-67
2020/12/12 02:34:23;;;;;;;25.10;16.35;;;;;;;4.57;100.00;98303.94;4992921;28;20407;-65
2020/12/12 02:37:07;;;;;;;28.80;16.35;;;;;;;4.57;100.00;98299.47;4993698;28;20061;-66
2020/12/12 02:39:51;;;;;;;22.70;15.57;;;;;;;4.57;100.00;98304.75;4993950;28;20057;-66
2020/12/12 02:42:35;;;;;;;22.73;14.98;;;;;;;4.59;100.00;98302.78;4992953;28;20562;-65
2020/12/12 02:45:19;;;;;;;21.42;15.27;;;;;;;4.58;100.00;98293.22;4992559;28;20053;-66
2020/12/12 02:48:04;;;;;;;23.58;15.75;;;;;;;4.60;100.00;98295.69;4993841;28;20053;-66
2020/12/12 02:50:48;;;;;;;22.52;15.55;;;;;;;4.61;100.00;98298.19;4994139;28;20060;-65
2020/12/12 02:53:31;;;;;;;22.65;15.77;;;;;;;4.68;100.00;98285.22;4993827;28;20109;-66
2020/12/12 02:56:16;;;;;;;23.40;15.82;;;;;;;4.67;100.00;98288.84;4993794;28;20065;-66
2020/12/12 02:59:01;;;;;;;24.88;16.13;;;;;;;4.68;100.00;98290.50;4993700;28;20085;-66
2020/12/12 03:01:45;;;;;;;23.02;15.52;;;;;;;4.66;100.00;98280.06;4979067;28;20571;-66
2020/12/12 03:04:29;;;;;;;26.85;16.27;;;;;;;4.68;100.00;98293.13;4993449;28;20113;-66
2020/12/12 03:07:13;;;;;;;20.52;15.05;;;;;;;4.67;100.00;98284.38;4993679;28;20049;-66
2020/12/12 03:09:57;;;;;;;22.45;15.52;;;;;;;4.71;100.00;98292.81;4992687;28;20111;-66
2020/12/12 03:12:41;;;;;;;26.08;16.42;;;;;;;4.73;100.00;98290.84;5006381;28;20080;-67
2020/12/12 03:15:25;;;;;;;26.23;15.93;;;;;;;4.71;100.00;98287.53;5006627;28;20061;-65
2020/12/12 03:18:09;;;;;;;20.83;14.77;;;;;;;4.74;100.00;98295.13;4994906;28;20049;-65
2020/12/12 03:20:53;;;;;;;22.05;15.40;;;;;;;4.74;100.00;98295.13;4996336;28;20128;-66
2020/12/12 03:23:37;;;;;;;23.17;15.32;;;;;;;4.72;100.00;98297.94;4996792;28;20058;-67
2020/12/12 03:26:21;;;;;;;21.75;14.82;;;;;;;4.72;100.00;98289.19;4995911;28;20073;-66
2020/12/12 03:29:06;;;;;;;23.75;15.93;;;;;;;4.76;100.00;98296.63;4997121;28;20103;-66
2020/12/12 03:31:50;;;;;;;24.73;16.10;;;;;;;4.77;100.00;98303.56;4996971;28;20052;-66
2020/12/12 03:34:35;;;;;;;20.25;14.32;;;;;;;4.79;100.00;98308.69;4995990;28;20182;-66
2020/12/12 03:37:19;;;;;;;20.52;13.95;;;;;;;4.79;100.00;98313.97;4982198;28;20122;-65
2020/12/12 03:40:04;;;;;;;21.67;14.63;;;;;;;4.79;100.00;98314.78;4995885;28;20058;-66
2020/12/12 03:42:48;;;;;;;21.90;15.27;;;;;;;4.79;100.00;98319.25;4997414;28;20068;-68
2020/12/12 03:45:32;;;;;;;22.90;14.25;;;;;;;4.79;100.00;98313.97;4995624;28;20551;-67
2020/12/12 03:48:17;;;;;;;21.90;14.45;;;;;;;4.79;100.00;98317.44;4996543;28;20103;-67
2020/12/12 03:51:00;;;;;;;25.17;16.42;;;;;;;4.78;100.00;98318.41;4995798;28;20112;-67
2020/12/12 03:53:45;;;;;;;22.95;15.93;;;;;;;4.78;100.00;98315.78;4995421;28;20088;-68
2020/12/12 03:56:29;;;;;;;19.25;13.82;;;;;;;4.77;100.00;98322.03;4995627;28;20057;-67
2020/12/12 03:59:13;;;;;;;17.75;13.00;;;;;;;4.80;100.00;98326.19;4981833;28;20053;-67
2020/12/12 04:01:56;;;;;;;23.50;15.55;;;;;;;4.77;100.00;98323.88;4996392;28;20146;-66
2020/12/12 04:04:40;;;;;;;21.77;15.30;;;;;;;4.76;100.00;98324.84;4995287;28;20100;-68
2020/12/12 04:07:24;;;;;;;23.88;14.75;;;;;;;4.74;100.00;98326.78;4996312;28;20053;-67
2020/12/12 04:10:08;;;;;;;37.25;15.88;;;;;;;4.75;100.00;98333.72;4996117;28;20061;-67
2020/12/12 04:12:52;;;;;;;20.65;14.98;;;;;;;4.77;100.00;98327.31;4995025;28;20104;-68
2020/12/12 04:15:36;;;;;;;22.42;15.30;;;;;;;4.78;100.00;98328.16;4995313;28;20101;-68
2020/12/12 04:18:20;;;;;;;21.25;15.20;;;;;;;4.81;100.00;98338.41;4994952;28;20054;-68
2020/12/12 04:21:07;;;;;;;20.90;14.73;;;;;;;4.80;100.00;98332.28;4996271;28;20130;-68
2020/12/12 04:23:52;;;;;;;21.02;14.82;;;;;;;4.82;100.00;98340.06;4994827;28;20177;-67
2020/12/12 04:26:36;;;;;;;22.17;14.70;;;;;;;4.83;100.00;98331.16;4995804;28;20049;-67
2020/12/12 04:29:20;;;;;;;22.38;14.23;;;;;;;4.84;100.00;98338.09;4995419;28;20514;-67
2020/12/12 04:32:04;;;;;;;21.23;15.10;;;;;;;4.83;100.00;98344.34;4995936;28;20518;-67
2020/12/12 04:34:48;;;;;;;21.33;14.68;;;;;;;4.87;100.00;98340.44;4995807;28;20124;-68
2020/12/12 04:37:33;;;;;;;22.83;16.15;;;;;;;4.83;100.00;98337.28;4995705;28;20606;-67
2020/12/12 04:40:17;;;;;;;23.27;15.85;;;;;;;4.85;100.00;98339.72;4995797;28;20048;-68
2020/12/12 04:43:02;;;;;;;20.63;14.48;;;;;;;4.85;100.00;98329.19;4994669;28;20084;-68
2020/12/12 04:45:46;;;;;;;;;;;;;;;4.86;100.00;98344.88;4994887;28;20155;-68
2020/12/12 04:48:30;;;;;;;22.83;16.10;;;;;;;4.86;100.00;98349.34;5008509;28;19952;-67
2020/12/12 04:51:14;;;;;;;23.58;15.77;;;;;;;4.88;100.00;98345.53;4994565;28;20049;-68
2020/12/12 04:53:59;;;;;;;23.40;14.93;;;;;;;4.88;100.00;98350.00;4995187;28;20057;-67
2020/12/12 04:56:45;;;;;;;20.95;14.77;;;;;;;4.88;100.00;98347.38;4995201;28;20134;-67
2020/12/12 04:59:30;;;;;;;19.75;14.75;;;;;;;4.87;100.00;98348.34;4995396;28;20056;-68
2020/12/12 05:02:14;;;;;;;21.75;14.80;;;;;;;4.89;100.00;98347.19;4994102;28;20049;-68
2020/12/12 05:04:58;;;;;;;20.63;14.68;;;;;;;4.89;100.00;98349.03;4994280;28;20454;-67
2020/12/12 05:07:42;;;;;;;24.90;17.30;;;;;;;4.89;100.00;98347.19;4994056;28;20053;-68
2020/12/12 05:10:26;;;;;;;19.05;13.77;;;;;;;4.91;100.00;98350.53;4994243;28;20056;-68
2020/12/12 05:13:23;;;;;;;21.58;14.68;;;;;;;4.93;100.00;98350.34;4994961;28;20462;-68
2020/12/12 05:16:07;;;;;;;21.15;14.75;;;;;;;4.91;100.00;98347.88;4994130;28;20100;-67
2020/12/12 05:18:51;;;;;;;23.10;15.98;;;;;;;4.93;100.00;98344.09;4994095;28;20053;-68
2020/12/12 05:21:45;;;;;;;22.13;14.80;;;;;;;4.93;100.00;98349.38;4995218;28;20045;-68
2020/12/12 05:24:30;;;;;;;22.08;15.13;;;;;;;4.93;100.00;98352.00;4993628;28;20173;-68
2020/12/12 05:27:15;;;;;;;19.63;13.93;;;;;;;4.95;100.00;98355.31;4994038;28;20089;-68
2020/12/12 05:29:59;;;;;;;23.20;15.73;;;;;;;4.97;100.00;98349.88;4994953;28;20057;-68
2020/12/12 05:32:46;;;;;;;23.17;15.20;;;;;;;4.95;100.00;98354.50;4995172;28;20123;-68
2020/12/12 05:35:29;;;;;;;20.38;14.50;;;;;;;4.96;100.00;98353.53;4980808;28;20049;-68
2020/12/12 05:38:14;;;;;;;21.83;14.77;;;;;;;4.95;100.00;98357.16;5007749;28;20185;-68
2020/12/12 05:40:58;;;;;;;20.30;14.55;;;;;;;4.95;100.00;98351.88;4994167;28;20129;-68
2020/12/12 05:43:42;;;;;;;23.02;15.48;;;;;;;4.95;100.00;98354.50;4993341;28;20049;-68
2020/12/12 05:46:26;;;;;;;23.55;14.40;;;;;;;4.97;100.00;98359.66;4994676;28;20419;-68
2020/12/12 05:49:13;;;;;;;22.48;14.63;;;;;;;4.99;100.00;98354.03;4993878;28;20108;-67
2020/12/12 05:51:57;;;;;;;24.48;15.90;;;;;;;4.98;100.00;98357.66;4994574;28;20097;-68
2020/12/12 05:54:42;;;;;;;23.38;15.52;;;;;;;4.99;100.00;98363.75;4994454;28;20053;-68
2020/12/12 05:57:27;;;;;;;24.00;16.15;;;;;;;4.98;100.00;98356.81;4994173;28;20100;-67
2020/12/12 06:00:11;;;;;;;25.13;16.05;;;;;;;4.97;100.00;98363.94;4993284;28;20053;-67
2020/12/12 06:03:04;;;;;;;21.80;14.57;;;;;;;5.01;100.00;98373.19;4993139;28;20057;-68
2020/12/12 06:05:48;;;;;;;24.55;17.13;;;;;;;4.98;100.00;98372.66;4994322;28;20084;-68
2020/12/12 06:08:37;;;;;;;26.20;17.27;;;;;;;5.00;100.00;98376.81;4994271;28;20057;-68
2020/12/12 06:11:21;;;;;;;28.38;17.08;;;;;;;5.00;100.00;98374.19;4993348;28;20049;-68
2020/12/12 06:14:06;;;;;;;28.50;16.25;;;;;;;5.01;100.00;98375.03;4993955;28;20172;-67
2020/12/12 06:16:51;;;;;;;29.95;17.33;;;;;;;5.05;100.00;98379.00;4993116;28;20112;-67
2020/12/12 06:19:38;;;;;;;28.92;15.88;;;;;;;5.04;100.00;98380.78;4994273;28;20093;-68
2020/12/12 06:22:22;;;;;;;25.25;15.32;;;;;;;5.02;100.00;98380.13;4993804;28;20470;-68
2020/12/12 06:25:07;;;;;;;21.52;14.15;;;;;;;5.03;100.00;98383.59;4994005;28;20128;-68
2020/12/12 06:27:54;;;;;;;31.27;15.63;;;;;;;5.02;100.00;98388.06;4993024;28;20053;-68
2020/12/12 06:30:38;;;;;;;31.55;16.55;;;;;;;5.03;100.00;98387.06;4993277;28;20077;-68
2020/12/12 06:33:23;;;;;;;31.90;17.05;;;;;;;5.02;100.00;98388.06;4979014;28;20053;-67
2020/12/12 06:36:31;;;;;;;27.88;16.98;;;;;;;5.02;100.00;98393.34;4993708;28;20073;-65
2020/12/12 06:39:25;;;;;;;22.17;14.68;;;;;;;5.03;100.00;98391.53;4993014;28;20045;-68
2020/12/12 06:42:35;;;;;;;24.80;14.57;;;;;;;5.02;100.00;98401.25;4993753;28;20518;-68
2020/12/12 06:45:20;;;;;;;25.13;15.15;;;;;;;5.03;100.00;98410.81;4993675;28;20045;-68
2020/12/12 06:48:05;;;;;;;22.42;14.55;;;;;;;5.06;100.00;98418.47;4993870;28;20089;-68
2020/12/12 06:50:49;;;;;;;22.35;14.43;;;;;;;5.08;100.00;98420.94;4992559;28;20189;-67
2020/12/12 06:53:34;;;;;;;22.42;13.82;;;;;;;5.07;100.00;98424.56;4980915;28;20053;-67
2020/12/12 06:56:18;;;;;;;20.63;13.60;;;;;;;5.08;100.00;98420.94;4997494;28;20142;-67
2020/12/12 06:59:23;;;;;;;22.60;14.98;;;;;;;5.08;100.00;98428.84;4982616;28;20446;-66
2020/12/12 07:02:07;;;;;;;25.80;15.48;;;;;;;5.09;100.00;98431.34;4996752;28;20526;-67
2020/12/12 07:04:51;;;;;;;23.33;14.88;;;;;;;5.11;100.00;98436.50;4997149;28;20049;-68
2020/12/12 07:07:35;;;;;;;25.65;14.93;;;;;;;5.11;100.00;98434.66;4996299;28;20052;-68
2020/12/12 07:10:20;;;;;;;20.65;14.15;;;;;;;5.14;100.00;98438.81;5010288;28;20050;-68
2020/12/12 07:13:04;;;;;;;21.13;13.88;;;;;;;5.14;100.00;98447.53;4982211;28;20053;-68
2020/12/12 07:15:48;;;;;;;24.98;15.73;;;;;;;5.15;100.00;98443.91;4982398;28;20065;-68
2020/12/12 07:18:34;;;;;;;25.05;13.93;;;;;;;5.16;100.00;98442.97;4997329;28;20057;-67
2020/12/12 07:21:18;;;;;;;23.17;13.45;;;;;;;5.19;100.00;98452.38;4996269;28;20518;-68
2020/12/12 07:24:02;;;;;;;24.42;14.77;;;;;;;5.17;100.00;98449.91;4996912;28;20049;-68
2020/12/12 07:26:46;;;;;;;23.05;14.55;;;;;;;5.18;100.00;98454.19;4995918;28;20073;-67
2020/12/12 07:29:31;;;;;;;21.00;13.75;;;;;;;5.21;100.00;98460.97;4995918;28;20061;-66
2020/12/12 07:32:15;;;;;;;26.20;14.13;;;;;;;5.22;100.00;98471.38;4995819;28;20048;-68
2020/12/12 07:35:00;;;;;;;23.83;14.23;;;;;;;5.23;100.00;98472.22;4996664;28;20454;-67
2020/12/12 07:37:44;;;;;;;20.15;13.23;;;;;;;5.23;100.00;98473.03;4996687;28;20566;-68
2020/12/12 07:40:35;;;;;;;22.70;13.75;;;;;;;5.26;100.00;98472.75;4996674;28;20430;-67
2020/12/12 07:43:19;;;;;;;21.98;14.90;;;;;;;5.29;100.00;98468.94;4995714;28;20077;-67
2020/12/12 07:49:00;;;;;;;20.23;13.68;;;;;;;5.38;100.00;98482.09;4997063;28;20049;-68
2020/12/12 07:51:44;;;;;;;20.25;12.98;;;;;;;5.40;100.00;98488.03;4995720;28;20105;-68
2020/12/12 07:54:34;;;;;;;22.33;13.65;;;;;;;5.45;100.00;98488.38;4995285;28;20049;-67
2020/12/12 07:57:18;;;;;;;20.60;13.77;;;;;;;5.52;100.00;98492.06;4995313;28;20101;-67
2020/12/12 08:00:10;;;;;;;23.17;14.95;;;;;;;5.57;100.00;98496.88;4996532;28;20053;-68
2020/12/12 08:02:56;;;;;;;21.70;13.57;;;;;;;5.62;100.00;98495.44;4996423;28;20419;-67
2020/12/12 08:05:40;;;;;;;25.95;15.15;;;;;;;5.68;100.00;98505.41;4994492;28;20053;-67
2020/12/12 08:08:24;;;;;;;22.92;14.35;;;;;;;5.75;100.00;98501.13;4995419;28;20062;-67
2020/12/12 08:11:08;;;;;;;22.17;14.75;;;;;;;5.87;100.00;98509.66;4995378;28;20130;-68
2020/12/12 08:13:52;;;;;;;24.42;14.60;;;;;;;5.94;100.00;98511.50;4995823;28;20419;-68
2020/12/12 08:16:46;;;;;;;23.92;15.88;;;;;;;6.02;100.00;98514.22;4995986;28;20053;-68
2020/12/12 08:19:30;;;;;;;22.50;14.52;;;;;;;6.10;100.00;98516.91;4995296;28;20048;-67
2020/12/12 08:22:18;;;;;;;22.95;13.60;;;;;;;6.13;100.00;98516.56;4995937;28;20104;-67
2020/12/12 08:25:06;;;;;;;20.67;13.10;;;;;;;6.37;100.00;98524.59;4994890;28;20054;-67
2020/12/12 08:27:51;;;;;;;19.92;12.77;;;;;;;6.40;100.00;98523.47;4996100;28;20045;-67
2020/12/12 08:30:35;;;;;;;30.55;13.75;;;;;;;6.45;100.00;98529.94;4981368;28;20065;-67
2020/12/12 08:33:19;;;;;;;22.35;14.13;;;;;;;6.43;100.00;98537.19;4995570;28;20049;-67
2020/12/12 08:36:30;;;;;;;24.08;13.43;;;;;;;6.47;100.00;98535.88;4994864;28;20046;-67
2020/12/12 08:39:20;;;;;;;24.00;13.93;;;;;;;6.54;100.00;98542.19;4995704;28;20132;-67
2020/12/12 08:42:05;;;;;;;16.30;11.50;;;;;;;6.55;100.00;98548.34;4994164;28;20045;-67
2020/12/12 08:44:48;;;;;;;21.50;13.15;;;;;;;6.54;100.00;98547.50;4994347;28;20134;-67
2020/12/12 08:47:33;;;;;;;17.27;11.88;;;;;;;6.47;100.00;98551.75;4994684;28;20053;-67
2020/12/12 08:50:17;;;;;;;17.38;12.73;;;;;;;6.45;100.00;98559.03;4995754;28;20088;-67
2020/12/12 08:53:26;;;;;;;18.10;12.50;;;;;;;6.52;100.00;98565.38;4995361;28;20049;-67
2020/12/12 08:56:20;;;;;;;15.10;9.98;;;;;;;6.57;100.00;98568.34;4995500;28;20049;-67
2020/12/12 08:59:06;;;;;;;18.27;11.90;;;;;;;6.66;100.00;98564.75;4995103;28;20045;-67
2020/12/12 09:01:50;;;;;;;19.40;10.98;;;;;;;6.68;100.00;98568.03;4994305;28;20049;-67
2020/12/12 09:04:35;;;;;;;38.35;20.45;;;;;;;6.69;100.00;98569.72;4994020;28;20446;-68
2020/12/12 09:07:23;;;;;;;22.92;12.27;;;;;;;6.77;100.00;98568.91;4993928;28;20130;-67
2020/12/12 09:10:09;;;;;;;19.88;11.27;;;;;;;6.81;100.00;98573.75;4995422;28;20416;-67
2020/12/12 09:12:52;;;;;;;18.13;10.60;;;;;;;6.86;100.00;98581.19;4994031;28;20088;-67
2020/12/12 09:15:36;;;;;;;13.80;8.77;;;;;;;6.89;100.00;98579.03;4993980;28;20093;-67
2020/12/12 09:18:21;;;;;;;10.70;6.95;;;;;;;6.93;100.00;98590.97;4995017;28;20053;-67
2020/12/12 09:21:05;;;;;;;9.02;5.82;;;;;;;6.99;100.00;98589.50;4995007;28;20096;-67
2020/12/12 09:23:50;;;;;;;5.13;3.95;;;;;;;7.08;100.00;98604.44;4994577;28;20514;-66
2020/12/12 09:26:34;;;;;;;;;;;;;;;7.15;100.00;98605.41;4994378;28;20042;-67
2020/12/12 09:29:18;;;;;;;4.90;3.22;;;;;;;7.24;100.00;98597.34;5007709;28;20420;-67
2020/12/12 09:32:01;;;;;;;5.15;3.35;;;;;;;7.26;100.00;98605.94;5007406;28;20518;-67
2020/12/12 09:34:45;;;;;;;4.63;2.75;;;;;;;7.31;100.00;98605.47;4993434;28;20518;-67
2020/12/12 09:37:29;;;;;;;10.80;2.33;;;;;;;7.36;100.00;98613.72;4994676;28;20097;-67
2020/12/12 09:40:13;;;;;;;4.78;2.72;;;;;;;7.41;100.00;98617.56;4994392;28;20056;-67
2020/12/12 09:42:57;;;;;;;2.40;2.20;;;;;;;7.45;100.00;98618.06;4994356;28;20052;-68
2020/12/12 09:45:42;;;;;;;3.45;2.38;;;;;;;7.51;100.00;98618.22;4993324;28;20057;-67
2020/12/12 09:48:38;;;;;;;3.80;2.53;;;;;;;7.52;100.00;98625.22;4994779;28;20049;-66
2020/12/12 09:51:22;;;;;;;2.47;2.20;;;;;;;7.54;100.00;98621.38;4993241;28;20104;-67
2020/12/12 09:54:06;;;;;;;3.45;2.53;;;;;;;7.57;100.00;98622.06;4994205;28;20116;-67
2020/12/12 09:56:50;;;;;;;7.20;2.75;;;;;;;7.56;100.00;98623.88;4994483;28;20049;-67
2020/12/12 09:59:35;;;;;;;4.63;2.63;;;;;;;7.59;100.00;98631.50;4993098;28;20053;-67
2020/12/12 10:02:19;;;;;;;3.15;2.42;;;;;;;7.56;100.00;98631.84;4994045;28;20056;-67
2020/12/12 10:05:03;;;;;;;3.85;2.58;;;;;;;7.55;100.00;98636.28;4993860;28;20183;-67
2020/12/12 10:07:47;;;;;;;5.30;3.20;;;;;;;7.57;100.00;98641.44;4993141;28;20104;-66
2020/12/12 10:10:31;;;;;;;3.67;2.70;;;;;;;7.58;100.00;98629.84;4993219;28;20053;-67
2020/12/12 10:13:16;;;;;;;3.85;2.90;;;;;;;7.59;100.00;98653.53;4992755;28;20092;-66
2020/12/12 10:16:01;;;;;;;3.63;2.70;;;;;;;7.62;100.00;98639.94;4993111;28;20502;-67
2020/12/12 10:18:45;;;;;;;3.28;2.80;;;;;;;7.66;100.00;98648.41;4992764;28;20045;-67
2020/12/12 10:21:29;;;;;;;3.78;2.83;;;;;;;7.71;100.00;98654.88;4993178;28;20084;-67
2020/12/12 10:24:13;;;;;;;4.20;2.83;;;;;;;7.75;100.00;98655.38;4993859;28;20060;-66
2020/12/12 10:26:57;;;;;;;3.17;2.88;;;;;;;7.79;100.00;98659.34;4993896;28;20139;-66
2020/12/12 10:29:41;;;;;;;4.75;3.28;;;;;;;7.77;100.00;98659.53;4994154;28;20053;-66
2020/12/12 10:32:25;;;;;;;7.75;3.33;;;;;;;7.76;100.00;98665.81;4993968;28;20180;-67
2020/12/12 10:35:10;;;;;;;4.03;3.13;;;;;;;7.79;100.00;98662.00;4993896;28;20045;-67
2020/12/12 10:37:55;;;;;;;5.38;2.70;;;;;;;7.82;100.00;98664.34;4993525;28;20141;-65
2020/12/12 10:40:44;;;;;;;3.45;2.92;;;;;;;7.83;100.00;98666.81;4993989;28;20045;-67
2020/12/12 10:43:28;;;;;;;8.13;3.70;;;;;;;7.81;100.00;98670.63;4979789;28;20084;-67
2020/12/12 10:46:12;;;;;;;3.13;2.65;;;;;;;7.83;100.00;98671.31;4992821;28;20081;-66
2020/12/12 10:48:56;;;;;;;4.03;3.00;;;;;;;7.85;100.00;98674.63;4993613;28;20513;-67
2020/12/12 10:51:46;;;;;;;3.92;3.10;;;;;;;7.89;100.00;98676.78;4993666;28;20564;-67
2020/12/12 10:54:31;;;;;;;3.28;2.20;;;;;;;7.90;100.00;98672.28;4992528;28;20045;-66
2020/12/12 10:57:15;;;;;;;5.85;2.88;;;;;;;7.87;100.00;98677.94;4979107;28;20100;-66
2020/12/12 11:00:01;;;;;;;4.78;3.03;;;;;;;7.86;100.00;98681.56;4992423;28;20068;-66
2020/12/12 11:02:45;;;;;;;4.28;3.05;;;;;;;7.87;100.00;98683.22;4992590;28;20049;-66
2020/12/12 11:05:29;;;;;;;8.02;3.60;;;;;;;7.84;100.00;98679.06;4992611;28;20118;-66
2020/12/12 11:08:14;;;;;;;3.60;3.05;;;;;;;7.86;100.00;98671.78;4993727;28;20108;-66
2020/12/12 11:11:00;;;;;;;4.40;3.75;;;;;;;7.86;100.00;98678.91;4993846;28;20057;-67
2020/12/12 11:13:45;;;;;;;4.90;4.40;;;;;;;7.85;100.00;98682.56;4993407;28;20057;-68
2020/12/12 11:16:29;;;;;;;6.07;5.35;;;;;;;7.85;100.00;98685.22;4993699;28;20065;-67
2020/12/12 11:19:13;;;;;;;7.30;5.45;;;;;;;7.83;100.00;98682.72;4993320;28;20045;-67
2020/12/12 11:21:57;;;;;;;6.75;5.65;;;;;;;7.88;100.00;98679.59;4992610;28;20097;-67
2020/12/12 11:24:41;;;;;;;6.30;5.55;;;;;;;7.93;100.00;98682.59;4993327;28;20046;-67
2020/12/12 11:27:25;;;;;;;7.80;6.05;;;;;;;7.90;100.00;98680.25;4992525;28;20112;-67
2020/12/12 11:30:12;;;;;;;7.00;5.78;;;;;;;7.93;100.00;98685.25;4992709;28;20053;-67
2020/12/12 11:32:57;;;;;;;8.32;5.60;;;;;;;7.90;100.00;98693.50;4993230;28;20053;-68
2020/12/12 11:38:52;;;;;;;6.88;5.85;;;;;;;7.95;100.00;98693.84;4993078;28;20431;-68
2020/12/12 11:44:53;;;;;;;9.10;6.05;;;;;;;8.02;100.00;98697.47;4995897;28;20355;-65
2020/12/12 11:47:37;;;;;;;11.30;6.13;;;;;;;8.08;100.00;98700.34;4995662;28;20520;-68
2020/12/12 11:50:21;;;;;;;9.10;6.50;;;;;;;8.18;100.00;98713.41;4996753;28;20502;-67
2020/12/12 11:53:05;;;;;;;9.48;6.85;;;;;;;8.29;100.00;98719.25;4996309;28;20096;-68
2020/12/12 11:55:50;;;;;;;8.65;5.85;;;;;;;8.30;100.00;98726.22;4996598;28;20104;-68
2020/12/12 11:58:33;;;;;;;8.50;6.75;;;;;;;8.35;100.00;98723.88;4996571;28;20052;-67
2020/12/12 12:01:25;;;;;;;8.05;6.13;;;;;;;8.35;100.00;98736.34;4995311;28;20085;-67
2020/12/12 12:04:10;;;;;;;7.70;6.47;;;;;;;8.28;100.00;98724.72;4995249;28;20046;-67
2020/12/12 12:06:56;;;;;;;8.60;6.35;;;;;;;8.32;100.00;98728.69;4996339;28;20053;-67
2020/12/12 12:09:47;;;;;;;8.85;6.88;;;;;;;8.30;100.00;98728.03;4996086;28;20066;-68
2020/12/12 12:12:31;;;;;;;8.25;6.50;;;;;;;8.30;100.00;98734.19;4996397;28;20061;-67
2020/12/12 12:15:15;;;;;;;8.70;7.38;;;;;;;8.25;100.00;98741.00;4995041;28;20089;-67
2020/12/12 12:17:59;;;;;;;9.18;7.10;;;;;;;8.23;100.00;98738.50;4995006;28;20522;-67
2020/12/12 12:20:43;;;;;;;11.45;7.28;;;;;;;8.21;100.00;98734.34;4995989;28;20053;-67
2020/12/12 12:23:27;;;;;;;8.77;7.32;;;;;;;8.22;100.00;98736.00;4995715;28;20048;-67
2020/12/12 12:26:13;;;;;;;10.02;7.93;;;;;;;8.23;100.00;98740.34;4995938;28;20049;-67
2020/12/12 12:28:58;;;;;;;10.82;8.32;;;;;;;8.26;100.00;98754.09;4981692;28;20057;-68
2020/12/12 12:31:43;;;;;;;11.35;8.35;;;;;;;8.29;100.00;98751.13;4995892;28;20077;-68
2020/12/12 12:34:27;;;;;;;10.20;7.85;;;;;;;8.33;100.00;98748.94;4995737;28;20080;-68
2020/12/12 12:37:11;;;;;;;11.25;8.32;;;;;;;8.36;100.00;98764.56;4995857;28;20097;-66
2020/12/12 12:39:55;;;;;;;11.38;8.43;;;;;;;8.30;100.00;98754.59;4995197;28;20185;-68
2020/12/12 12:42:39;;;;;;;13.77;8.73;;;;;;;8.23;100.00;98753.59;4995880;28;20069;-67
2020/12/12 12:45:24;;;;;;;12.40;8.77;;;;;;;8.28;100.00;98759.25;4994512;28;20053;-67
2020/12/12 12:48:08;;;;;;;12.30;8.27;;;;;;;8.24;100.00;98757.91;4994752;28;20521;-67
2020/12/12 12:50:52;;;;;;;12.23;9.70;;;;;;;8.29;100.00;98763.53;4994423;28;20556;-67
2020/12/12 12:53:37;;;;;;;11.77;9.73;;;;;;;8.28;100.00;98761.88;4995239;28;20049;-67